Time;durP1;ratioP1;P1;durP2;ratioP2;P2;SDS_P1;SDS_P2;PMS_P1;PMS_P2;Temp;Humidity;BMP_temperature;BMP_pressure;BME280_temperature;BME280_humidity;BME280_pressure;Samples;Min_cycle;Max_cycle;Signal;HPM_P1;HPM_P2
2023/04/02 00:00:10;;;;;;;8.85;4.88;;;;;;;-0.72;100.00;100564.91;6240009;23;20326;-70
2023/04/02 00:02:57;;;;;;;12.18;5.28;;;;;;;-0.69;100.00;100577.88;6240226;23;20089;-71
2023/04/02 00:05:29;;;;;;;9.98;5.22;;;;;;;-0.69;100.00;100583.16;6240985;23;20411;-71
2023/04/02 00:07:59;;;;;;;9.23;5.40;;;;;;;-0.69;100.00;100591.06;6241008;23;20031;-71
2023/04/02 00:10:33;;;;;;;12.02;6.18;;;;;;;-0.67;100.00;100592.66;6240261;23;20092;-71
2023/04/02 00:13:16;;;;;;;9.68;5.00;;;;;;;-0.75;100.00;100586.16;6240575;23;20104;-69
2023/04/02 00:15:46;;;;;;;10.55;5.30;;;;;;;-0.88;100.00;100596.56;6241142;23;20018;-71
2023/04/02 00:18:16;;;;;;;13.82;6.38;;;;;;;-0.96;100.00;100599.63;6239476;23;20028;-71
2023/04/02 00:21:10;;;;;;;10.65;4.90;;;;;;;-0.84;100.00;100603.34;6240654;23;20073;-70
2023/04/02 00:23:39;;;;;;;11.07;5.22;;;;;;;-0.93;100.00;100610.00;6240063;23;20407;-71
2023/04/02 00:26:20;;;;;;;13.27;4.32;;;;;;;-1.01;100.00;100604.34;6239829;23;20103;-71
2023/04/02 00:28:47;;;;;;;18.92;4.78;;;;;;;-0.97;100.00;100613.75;6239347;23;20096;-70
2023/04/02 00:31:17;;;;;;;10.85;4.18;;;;;;;-0.93;100.00;100623.16;6239153;23;20109;-71
2023/04/02 00:33:45;;;;;;;15.52;3.90;;;;;;;-0.99;100.00;100620.91;6240012;23;20045;-70
2023/04/02 00:36:12;;;;;;;13.45;4.35;;;;;;;-1.04;100.00;100616.81;6239660;23;20026;-71
2023/04/02 00:38:42;;;;;;;11.05;4.20;;;;;;;-0.95;100.00;100625.06;6240529;23;20511;-71
2023/04/02 00:41:20;;;;;;;10.18;4.60;;;;;;;-0.93;100.00;100632.84;6237314;23;20074;-71
2023/04/02 00:43:50;;;;;;;10.32;4.07;;;;;;;-0.85;100.00;100642.94;6239584;23;20457;-70
2023/04/02 00:46:22;;;;;;;10.65;4.93;;;;;;;-0.82;100.00;100638.34;6238909;23;20298;-71
2023/04/02 00:49:11;;;;;;;9.95;4.40;;;;;;;-0.85;100.00;100648.19;6239151;23;20023;-70
2023/04/02 00:51:45;;;;;;;6.93;4.47;;;;;;;-0.87;100.00;100644.81;6240377;23;20103;-71
2023/04/02 00:54:14;;;;;;;10.50;4.75;;;;;;;-0.85;100.00;100648.19;6239978;23;20024;-67
2023/04/02 00:56:47;;;;;;;8.98;4.30;;;;;;;-0.93;100.00;100653.91;6261669;23;20026;-62
2023/04/02 00:59:17;;;;;;;18.00;5.13;;;;;;;-0.94;100.00;100655.72;6263080;23;20514;-65
2023/04/02 01:01:44;;;;;;;11.43;5.03;;;;;;;-0.98;100.00;100648.94;6263086;23;20020;-63
2023/04/02 01:04:28;;;;;;;12.48;4.60;;;;;;;-1.01;100.00;100653.53;6263583;23;20047;-65
2023/04/02 01:07:30;;;;;;;7.65;4.43;;;;;;;-0.93;100.00;100656.56;6138415;22;20038;-63
2023/04/02 01:10:35;;;;;;;13.05;4.43;;;;;;;-0.87;100.00;100660.63;6262335;23;20039;-63
2023/04/02 01:13:31;;;;;;;16.60;5.07;;;;;;;-0.87;100.00;100679.06;6217734;23;20036;-65
2023/04/02 01:16:12;;;;;;;9.48;4.05;;;;;;;-1.11;100.00;100673.41;6262021;23;20020;-63
2023/04/02 01:18:49;;;;;;;6.80;2.90;;;;;;;-0.97;100.00;100674.31;6248971;22;20020;-63
2023/04/02 01:21:27;;;;;;;7.53;4.15;;;;;;;-0.86;100.00;100680.75;6262191;22;20020;-65
2023/04/02 01:24:09;;;;;;;12.07;4.18;;;;;;;-0.95;100.00;100677.72;6263260;23;20030;-63
2023/04/02 01:26:51;;;;;;;17.17;4.68;;;;;;;-0.98;100.00;100700.75;6263658;23;20056;-65
2023/04/02 01:29:39;;;;;;;8.15;4.28;;;;;;;-1.02;100.00;100694.81;6263285;23;20038;-66
2023/04/02 01:32:18;;;;;;;8.30;3.67;;;;;;;-0.94;100.00;100703.13;6263719;23;20024;-65
2023/04/02 01:34:47;;;;;;;9.73;3.38;;;;;;;-0.88;100.00;100711.59;6263457;23;20024;-68
2023/04/02 01:37:37;;;;;;;10.35;4.15;;;;;;;-0.82;100.00;100703.34;6265195;23;20027;-65
2023/04/02 01:40:33;;;;;;;11.63;3.70;;;;;;;-0.85;100.00;100700.88;6263102;23;20027;-66
2023/04/02 01:43:26;;;;;;;10.07;3.97;;;;;;;-0.81;100.00;100718.22;6237076;23;20052;-66
2023/04/02 01:45:52;;;;;;;6.68;3.40;;;;;;;-0.87;100.00;100713.31;6264286;23;20040;-65
2023/04/02 01:48:26;;;;;;;10.45;3.50;;;;;;;-0.79;100.00;100729.50;6259283;23;20071;-66
2023/04/02 01:50:55;;;;;;;8.52;3.70;;;;;;;-0.82;100.00;100724.41;6263720;23;20031;-65
2023/04/02 01:53:24;;;;;;;7.13;3.70;;;;;;;-0.90;100.00;100730.97;6265162;23;20016;-65
2023/04/02 01:55:58;;;;;;;7.30;3.70;;;;;;;-0.94;100.00;100732.06;6264028;23;20016;-65
2023/04/02 01:58:30;;;;;;;8.38;3.35;;;;;;;-0.89;100.00;100747.63;6263076;23;20024;-64
2023/04/02 02:01:08;;;;;;;8.80;3.78;;;;;;;-0.93;100.00;100757.47;6263939;23;20024;-65
2023/04/02 02:03:42;;;;;;;10.00;4.07;;;;;;;-1.01;100.00;100751.78;6263040;23;20028;-66
2023/04/02 02:06:15;;;;;;;11.35;4.45;;;;;;;-0.91;100.00;100754.78;6263456;23;20036;-65
2023/04/02 02:09:03;;;;;;;8.35;4.25;;;;;;;-1.02;100.00;100767.66;6242162;23;20525;-71
2023/04/02 02:11:31;;;;;;;9.40;3.78;;;;;;;-0.94;100.00;100771.59;6239853;23;20030;-71
2023/04/02 02:13:59;;;;;;;10.38;4.07;;;;;;;-1.00;100.00;100766.66;6239251;23;20307;-71
2023/04/02 02:16:28;;;;;;;9.88;3.67;;;;;;;-0.95;100.00;100775.16;6234291;22;20352;-71
2023/04/02 02:19:00;;;;;;;7.30;2.88;;;;;;;-1.06;100.00;100777.50;6239718;23;20035;-71
2023/04/02 02:21:38;;;;;;;4.43;2.72;;;;;;;-1.09;100.00;100777.72;6238634;23;20030;-70
2023/04/02 02:24:15;;;;;;;9.43;2.70;;;;;;;-1.01;100.00;100786.03;6238542;23;20023;-71
2023/04/02 02:26:43;;;;;;;7.47;2.35;;;;;;;-1.15;100.00;100785.94;6233537;22;20024;-71
2023/04/02 02:29:14;;;;;;;9.32;3.15;;;;;;;-1.07;100.00;100786.34;6243217;23;20437;-69
2023/04/02 02:31:43;;;;;;;7.75;1.95;;;;;;;-0.99;100.00;100801.72;6241158;23;20441;-70
2023/04/02 02:34:20;;;;;;;6.32;2.22;;;;;;;-1.04;100.00;100798.50;6239988;23;20392;-69
2023/04/02 02:36:53;;;;;;;9.23;2.65;;;;;;;-1.00;100.00;100803.50;6237571;23;20099;-68
2023/04/02 02:39:57;;;;;;;6.38;2.38;;;;;;;-1.01;100.00;100808.88;6240380;23;20024;-69
2023/04/02 02:42:24;;;;;;;8.88;2.65;;;;;;;-1.02;100.00;100813.28;6189426;22;20026;-68
2023/04/02 02:44:52;;;;;;;8.85;2.35;;;;;;;-1.08;100.00;100812.78;6240564;23;20087;-68
2023/04/02 02:47:25;;;;;;;10.45;3.00;;;;;;;-1.00;100.00;100827.22;6239400;23;20031;-68
2023/04/02 02:49:56;;;;;;;6.35;3.45;;;;;;;-1.17;100.00;100824.63;6246188;22;20023;-69
2023/04/02 02:52:27;;;;;;;8.75;2.85;;;;;;;-1.19;100.00;100834.41;6245805;22;20027;-69
2023/04/02 02:55:07;;;;;;;7.43;2.30;;;;;;;-1.21;100.00;100825.75;6241412;23;20099;-68
2023/04/02 02:57:41;;;;;;;4.45;2.45;;;;;;;-1.26;100.00;100838.31;6241489;22;20022;-69
2023/04/02 03:00:10;;;;;;;6.40;2.20;;;;;;;-1.28;100.00;100840.16;6241120;23;20031;-69
2023/04/02 03:02:40;;;;;;;5.63;2.30;;;;;;;-1.33;100.00;100842.16;6241781;23;20020;-69
2023/04/02 03:05:08;;;;;;;6.60;2.30;;;;;;;-1.28;100.00;100855.97;6241172;22;20024;-68
2023/04/02 03:07:36;;;;;;;6.35;2.00;;;;;;;-1.31;100.00;100851.69;6241554;23;20107;-68
2023/04/02 03:10:15;;;;;;;5.97;1.70;;;;;;;-1.28;100.00;100855.97;6242575;23;20095;-68
2023/04/02 03:12:51;;;;;;;6.25;2.03;;;;;;;-1.49;100.00;100874.56;6242490;23;20020;-69
2023/04/02 03:15:30;;;;;;;5.38;1.92;;;;;;;-1.39;100.00;100869.69;6244038;23;20027;-68
2023/04/02 03:18:19;;;;;;;4.47;1.60;;;;;;;-1.22;100.00;100876.69;6266562;23;20115;-63
2023/04/02 03:21:00;;;;;;;4.82;1.80;;;;;;;-1.35;100.00;100883.53;6263224;23;20024;-63
2023/04/02 03:23:34;;;;;;;;;;;;;;;-1.26;100.00;100883.91;6266297;22;20020;-63
2023/04/02 03:26:06;;;;;;;7.72;2.15;;;;;;;-1.24;100.00;100889.06;6266155;23;19915;-64
2023/04/02 03:28:48;;;;;;;8.38;2.28;;;;;;;-1.16;100.00;100892.16;6252466;22;20072;-64
2023/04/02 03:31:25;;;;;;;6.10;2.00;;;;;;;-1.20;100.00;100896.72;6265757;23;20057;-64
2023/04/02 03:33:58;;;;;;;8.65;2.45;;;;;;;-1.22;100.00;100900.38;6262511;23;20020;-64
2023/04/02 03:36:34;;;;;;;7.60;2.30;;;;;;;-1.09;100.00;100909.34;6254945;23;20404;-69
2023/04/02 03:39:22;;;;;;;5.10;2.20;;;;;;;-1.07;100.00;100910.09;6240712;23;20394;-69
2023/04/02 03:42:00;;;;;;;6.13;1.80;;;;;;;-1.07;100.00;100915.38;6241176;23;20022;-69
2023/04/02 03:44:35;;;;;;;11.43;2.25;;;;;;;-1.06;100.00;100914.44;6242107;23;20020;-69
2023/04/02 03:47:15;;;;;;;5.97;1.92;;;;;;;-1.07;100.00;100927.69;6241296;23;20031;-69
2023/04/02 03:50:10;;;;;;;6.18;2.20;;;;;;;-1.13;100.00;100926.22;6241550;23;20024;-70
2023/04/02 03:52:38;;;;;;;5.32;2.85;;;;;;;-1.06;100.00;100940.75;6186023;22;20025;-70
2023/04/02 03:55:32;;;;;;;6.10;2.10;;;;;;;-1.00;100.00;100943.06;6240781;23;20035;-71
2023/04/02 03:58:17;;;;;;;11.15;2.28;;;;;;;-1.22;100.00;100940.72;6237656;23;20020;-70
2023/04/02 04:00:52;;;;;;;12.15;3.05;;;;;;;-1.08;100.00;100945.28;6239789;23;20032;-70
2023/04/02 04:03:37;;;;;;;9.90;2.22;;;;;;;-1.14;100.00;100948.22;6239468;23;20020;-71
2023/04/02 04:06:28;;;;;;;5.18;1.95;;;;;;;-1.12;100.00;100946.38;6241905;23;20100;-69
2023/04/02 04:09:00;;;;;;;5.63;1.90;;;;;;;-1.09;100.00;100959.38;6233774;22;20042;-70
2023/04/02 04:11:34;;;;;;;6.35;2.40;;;;;;;-0.99;100.00;100957.97;6240330;23;20348;-70
2023/04/02 04:14:15;;;;;;;7.25;2.50;;;;;;;-0.99;100.00;100962.34;6240994;23;20331;-70
2023/04/02 04:16:52;;;;;;;7.22;2.17;;;;;;;-1.01;100.00;100973.00;6241879;23;20024;-69
2023/04/02 04:19:57;;;;;;;8.63;2.20;;;;;;;-0.95;100.00;100990.25;6240813;23;20321;-69
2023/04/02 04:22:29;;;;;;;6.32;1.98;;;;;;;-1.21;100.00;100979.28;6239852;23;20020;-69
2023/04/02 04:25:05;;;;;;;4.97;2.10;;;;;;;-1.23;100.00;100985.53;6241175;23;20047;-69
2023/04/02 04:28:07;;;;;;;7.72;1.95;;;;;;;-1.24;100.00;100989.09;6241199;23;20070;-70
2023/04/02 04:30:58;;;;;;;7.88;2.35;;;;;;;-1.18;100.00;100994.06;6231296;22;20083;-69
2023/04/02 04:33:38;;;;;;;7.35;2.50;;;;;;;-1.23;100.00;101006.59;6239252;23;20402;-70
2023/04/02 04:36:17;;;;;;;6.53;2.00;;;;;;;-1.15;100.00;101007.06;6239953;23;20101;-70
2023/04/02 04:38:54;;;;;;;6.10;1.70;;;;;;;-1.17;100.00;101011.56;6241103;23;20062;-69
2023/04/02 04:41:25;;;;;;;9.43;1.75;;;;;;;-1.19;100.00;101016.06;6239130;23;20020;-70
2023/04/02 04:43:51;;;;;;;;;;;;;;;-1.19;100.00;101030.06;6241577;23;20035;-70
2023/04/02 04:46:26;;;;;;;4.78;1.80;;;;;;;-1.17;100.00;101028.19;6242118;23;19922;-70
2023/04/02 04:48:53;;;;;;;9.45;2.40;;;;;;;-1.25;100.00;101034.78;6242454;23;20020;-69
2023/04/02 04:51:25;;;;;;;7.38;2.25;;;;;;;-1.19;100.00;101034.50;6241699;23;20410;-70
2023/04/02 04:53:54;;;;;;;7.10;2.60;;;;;;;-1.16;100.00;101029.03;6239367;23;20023;-69
2023/04/02 04:56:24;;;;;;;5.57;1.95;;;;;;;-1.12;100.00;101042.94;6240980;23;20020;-69
2023/04/02 04:59:06;;;;;;;4.82;1.92;;;;;;;-0.96;100.00;101051.75;6239854;23;20018;-69
2023/04/02 05:01:37;;;;;;;6.32;2.08;;;;;;;-1.08;100.00;101053.22;6239570;23;20016;-69
2023/04/02 05:04:31;;;;;;;9.60;1.75;;;;;;;-1.27;100.00;101052.44;6242188;23;20093;-70
2023/04/02 05:07:16;;;;;;;5.43;1.67;;;;;;;-1.03;100.00;101063.53;6233768;22;20016;-70
2023/04/02 05:09:53;;;;;;;4.93;2.20;;;;;;;-0.94;100.00;101071.81;6242255;23;20024;-70
2023/04/02 05:12:36;;;;;;;8.25;2.22;;;;;;;-0.97;100.00;101071.13;6241542;22;20414;-68
2023/04/02 05:15:08;;;;;;;8.32;1.85;;;;;;;-0.99;100.00;101079.09;6241356;23;20020;-70
2023/04/02 05:17:40;;;;;;;;;;;;;;;-0.94;100.00;101082.34;6240915;23;20027;-69
2023/04/02 05:20:15;;;;;;;;;;;;;;;-0.92;100.00;101085.78;6234759;22;19919;-69
2023/04/02 05:22:46;;;;;;;6.18;2.35;;;;;;;-0.89;100.00;101092.63;6240901;23;19919;-68
2023/04/02 05:25:27;;;;;;;5.60;2.22;;;;;;;-0.77;100.00;101086.75;6240379;23;20418;-69
2023/04/02 05:28:25;;;;;;;7.57;2.40;;;;;;;-0.74;100.00;101106.84;6240208;23;20016;-69
2023/04/02 05:30:59;;;;;;;10.52;2.60;;;;;;;-0.80;100.00;101109.78;6241032;23;20020;-70
2023/04/02 05:33:28;;;;;;;13.02;2.55;;;;;;;-0.73;100.00;101105.91;6240609;23;20046;-70
2023/04/02 05:36:02;;;;;;;7.53;2.38;;;;;;;-0.72;100.00;101118.13;6242588;23;20020;-70
2023/04/02 05:38:34;;;;;;;7.75;2.47;;;;;;;-0.67;100.00;101124.03;6239418;23;20379;-69
2023/04/02 05:41:20;;;;;;;7.43;2.33;;;;;;;-0.57;100.00;101122.63;6240563;23;20020;-70
2023/04/02 05:43:53;;;;;;;7.85;2.67;;;;;;;-0.56;100.00;101134.03;6240375;23;20032;-69
2023/04/02 05:46:26;;;;;;;10.50;2.50;;;;;;;-0.68;100.00;101132.84;6237953;23;20031;-70
2023/04/02 05:48:58;;;;;;;9.80;2.78;;;;;;;-0.64;100.00;101131.78;6240457;23;20020;-70
2023/04/02 05:51:40;;;;;;;8.15;2.70;;;;;;;-0.56;100.00;101134.03;6242023;22;20035;-70
2023/04/02 05:54:21;;;;;;;5.80;2.40;;;;;;;-0.49;100.00;101141.53;6243413;22;20031;-69
2023/04/02 05:56:55;;;;;;;7.95;2.28;;;;;;;-0.46;100.00;101149.28;6241270;23;20056;-69
2023/04/02 05:59:29;;;;;;;11.70;2.60;;;;;;;-0.39;100.00;101154.25;6240963;23;20329;-69
2023/04/02 06:02:07;;;;;;;7.72;2.30;;;;;;;-0.51;100.00;101159.19;6240582;23;20024;-69
2023/04/02 06:10:10;;;;;;;7.15;2.38;;;;;;;-0.46;100.00;101172.16;6264134;22;20034;-65
2023/04/02 06:12:45;;;;;;;9.20;2.38;;;;;;;-0.47;100.00;101176.59;6263279;23;20043;-64
2023/04/02 06:15:17;;;;;;;6.22;2.25;;;;;;;-0.44;100.00;101180.81;6264583;23;20020;-66
2023/04/02 06:17:57;;;;;;;8.15;1.98;;;;;;;-0.46;100.00;101186.19;6259665;23;20020;-63
2023/04/02 06:20:25;;;;;;;9.75;2.60;;;;;;;-0.35;100.00;101184.78;6264786;23;20020;-64
2023/04/02 06:23:02;;;;;;;7.57;2.30;;;;;;;-0.32;100.00;101189.91;6264784;22;20056;-64
2023/04/02 06:25:47;;;;;;;10.20;1.70;;;;;;;-0.49;100.00;101191.63;6264414;23;20031;-66
2023/04/02 06:28:23;;;;;;;7.03;2.03;;;;;;;-0.45;100.00;101205.50;6265419;23;20020;-63
2023/04/02 06:39:23;;;;;;;5.25;1.60;;;;;;;-0.58;100.00;101218.41;6266600;22;20035;-65
2023/04/02 06:42:10;;;;;;;3.28;1.35;;;;;;;-0.50;100.00;101224.19;6267440;23;20031;-64
2023/04/02 06:44:37;;;;;;;6.57;1.67;;;;;;;-0.37;100.00;101231.47;6261169;22;20024;-65
2023/04/02 06:47:28;;;;;;;9.00;1.65;;;;;;;-0.36;100.00;101236.66;6267286;23;20031;-65
2023/04/02 06:50:13;;;;;;;14.07;2.22;;;;;;;-0.20;100.00;101237.56;6248024;23;20020;-69
2023/04/02 06:52:48;;;;;;;5.38;1.60;;;;;;;-0.01;100.00;101244.56;6238798;23;20036;-69
2023/04/02 06:55:42;;;;;;;9.10;1.73;;;;;;;0.14;100.00;101245.53;6238818;23;20471;-69
2023/04/02 06:58:08;;;;;;;6.07;1.50;;;;;;;0.36;100.00;101255.81;6239419;23;20094;-70
2023/04/02 07:00:39;;;;;;;4.15;1.33;;;;;;;0.42;100.00;101258.13;6240814;23;20491;-68
2023/04/02 07:03:13;;;;;;;8.13;1.80;;;;;;;0.28;100.00;101253.59;6240325;23;20044;-69
2023/04/02 07:05:40;;;;;;;8.18;1.80;;;;;;;0.47;100.00;101254.34;6241061;23;20012;-69
2023/04/02 07:08:08;;;;;;;6.95;1.70;;;;;;;0.89;100.00;101252.09;6239016;23;20032;-70
2023/04/02 07:10:35;;;;;;;6.80;1.63;;;;;;;1.06;100.00;101252.00;6234193;23;20026;-69
2023/04/02 07:13:01;;;;;;;7.78;1.75;;;;;;;0.68;100.00;101256.75;6239975;22;20020;-69
2023/04/02 07:15:28;;;;;;;5.00;1.83;;;;;;;1.04;100.00;101266.22;6240193;23;20529;-69
2023/04/02 07:17:57;;;;;;;9.95;1.73;;;;;;;1.19;100.00;101266.19;6238305;22;20027;-69
2023/04/02 07:20:37;;;;;;;2.50;1.30;;;;;;;0.73;100.00;101265.25;6238653;22;20463;-69
2023/04/02 07:23:04;;;;;;;9.75;1.70;;;;;;;0.30;100.00;101278.13;6242104;22;20074;-69
2023/04/02 07:25:30;;;;;;;7.57;1.60;;;;;;;0.41;100.00;101281.03;6241599;23;20031;-69
2023/04/02 07:27:57;;;;;;;7.93;1.65;;;;;;;0.46;100.00;101281.63;6240961;23;20013;-69
2023/04/02 07:30:23;;;;;;;7.82;1.17;;;;;;;0.42;100.00;101281.91;6239755;23;20024;-70
2023/04/02 07:32:50;;;;;;;5.03;1.58;;;;;;;0.65;100.00;101283.31;6240059;23;20348;-69
2023/04/02 07:35:16;;;;;;;5.57;1.60;;;;;;;1.45;100.00;101279.75;6242050;23;20365;-71
2023/04/02 07:37:43;;;;;;;5.82;1.67;;;;;;;1.75;100.00;101293.00;6239569;23;20024;-70
2023/04/02 07:40:19;;;;;;;7.38;1.60;;;;;;;1.67;100.00;101295.22;6242307;23;20024;-70
2023/04/02 07:42:46;;;;;;;7.53;1.63;;;;;;;1.32;100.00;101287.50;6241951;23;20043;-71
2023/04/02 07:45:13;;;;;;;3.97;1.17;;;;;;;1.39;100.00;101296.81;6241946;23;20050;-69
2023/04/02 07:47:39;;;;;;;5.07;1.33;;;;;;;1.73;100.00;101310.75;6241926;23;20054;-69
2023/04/02 07:50:07;;;;;;;5.57;2.38;;;;;;;2.41;100.00;101308.50;6242006;23;20020;-69
2023/04/02 07:52:41;;;;;;;4.95;1.80;;;;;;;2.72;100.00;101305.75;6235392;22;20050;-70
2023/04/02 07:55:13;;;;;;;7.63;1.40;;;;;;;2.10;100.00;101324.50;6241604;23;20020;-72
2023/04/02 07:57:55;;;;;;;7.85;1.52;;;;;;;2.20;100.00;101323.03;6242936;23;20020;-73
2023/04/02 08:00:25;;;;;;;5.72;1.88;;;;;;;1.73;100.00;101327.47;6241761;23;20094;-73
2023/04/02 08:02:52;;;;;;;4.93;1.42;;;;;;;1.45;100.00;101325.53;6242571;23;20416;-71
2023/04/02 08:05:19;;;;;;;3.03;1.13;;;;;;;1.13;100.00;101342.34;6242534;23;20070;-68
2023/04/02 08:07:53;;;;;;;6.53;1.92;;;;;;;0.93;100.00;101346.91;6240838;23;20453;-70
2023/04/02 08:10:20;;;;;;;7.28;1.77;;;;;;;1.15;100.00;101340.47;6239534;23;20110;-69
2023/04/02 08:12:48;;;;;;;3.83;1.45;;;;;;;1.36;100.00;101344.56;6239347;23;20487;-69
2023/04/02 08:15:15;;;;;;;9.25;2.25;;;;;;;1.09;100.00;101349.59;6241326;23;20334;-69
2023/04/02 08:17:42;;;;;;;5.70;1.63;;;;;;;1.06;100.00;101349.75;6242009;23;20103;-68
2023/04/02 08:20:16;;;;;;;12.52;2.40;;;;;;;0.96;100.00;101359.13;6240356;23;20421;-70
2023/04/02 08:22:44;;;;;;;5.30;1.42;;;;;;;1.01;100.00;101357.91;6240559;23;20035;-70
2023/04/02 08:25:11;;;;;;;5.28;1.60;;;;;;;1.01;100.00;101357.06;6241942;23;20357;-69
2023/04/02 08:27:38;;;;;;;9.63;1.80;;;;;;;0.95;100.00;101360.91;6240377;23;20031;-71
2023/04/02 08:30:06;;;;;;;12.90;1.90;;;;;;;0.93;100.00;101365.41;6241901;23;20048;-68
2023/04/02 08:32:34;;;;;;;5.18;1.45;;;;;;;1.06;100.00;101364.75;6240282;23;20020;-68
2023/04/02 08:35:01;;;;;;;4.43;1.45;;;;;;;1.12;100.00;101382.91;6241719;23;20388;-68
2023/04/02 08:37:28;;;;;;;3.47;1.20;;;;;;;1.05;100.00;101382.38;6240952;23;20027;-68
2023/04/02 08:39:54;;;;;;;2.13;1.05;;;;;;;1.08;100.00;101379.59;6240365;23;20024;-68
2023/04/02 08:42:23;;;;;;;3.90;1.77;;;;;;;1.04;100.00;101388.63;6240770;23;20024;-70
2023/04/02 08:44:55;;;;;;;4.80;1.30;;;;;;;1.00;100.00;101397.66;6240033;23;20441;-69
2023/04/02 08:47:25;;;;;;;4.68;1.42;;;;;;;1.07;100.00;101390.25;6240559;23;20483;-69
2023/04/02 08:50:05;;;;;;;5.28;1.50;;;;;;;1.20;100.00;101407.16;6241063;23;20449;-69
2023/04/02 08:52:36;;;;;;;7.15;1.70;;;;;;;1.24;100.00;101400.75;6240915;23;20449;-69
2023/04/02 08:55:17;;;;;;;6.35;1.60;;;;;;;1.28;100.00;101412.88;6241321;23;20040;-69
2023/04/02 08:57:53;;;;;;;4.13;1.23;;;;;;;1.53;100.00;101420.31;6240495;23;20412;-69
2023/04/02 09:00:39;;;;;;;4.55;1.42;;;;;;;1.46;100.00;101414.50;6240180;23;20031;-69
2023/04/02 09:03:12;;;;;;;4.97;1.50;;;;;;;1.60;100.00;101423.47;6240676;23;20028;-69
2023/04/02 09:05:42;;;;;;;7.30;2.00;;;;;;;1.41;100.00;101434.22;6241325;23;20461;-71
2023/04/02 09:08:17;;;;;;;9.40;1.80;;;;;;;1.29;100.00;101429.56;6240856;23;20047;-70
2023/04/02 09:11:07;;;;;;;5.32;2.03;;;;;;;1.22;100.00;101432.53;6240743;23;20027;-68
2023/04/02 09:13:39;;;;;;;5.28;1.77;;;;;;;1.22;100.00;101444.91;6250645;23;20068;-68
2023/04/02 09:16:15;;;;;;;6.10;1.60;;;;;;;1.52;100.00;101437.13;6256075;23;20080;-69
2023/04/02 09:18:43;;;;;;;7.47;2.30;;;;;;;1.47;100.00;101442.66;6255196;23;20024;-69
2023/04/02 09:21:19;;;;;;;9.63;1.98;;;;;;;1.33;100.00;101439.88;6254697;22;20079;-69
2023/04/02 09:23:46;;;;;;;4.43;1.70;;;;;;;1.42;100.00;101444.69;6255148;23;20020;-69
2023/04/02 09:26:22;;;;;;;6.18;1.55;;;;;;;1.76;100.00;101445.50;6256503;23;20398;-70
2023/04/02 09:29:00;;;;;;;7.55;2.20;;;;;;;1.77;100.00;101449.84;6256712;23;20020;-71
2023/04/02 09:31:42;;;;;;;9.80;1.73;;;;;;;1.56;100.00;101451.03;6254736;23;20039;-69
2023/04/02 09:34:32;;;;;;;7.55;1.67;;;;;;;1.55;100.00;101459.91;6256253;23;20031;-70
2023/04/02 09:37:24;;;;;;;6.15;1.70;;;;;;;1.78;100.00;101466.56;6255814;22;20050;-70
2023/04/02 09:39:50;;;;;;;5.20;1.50;;;;;;;2.43;100.00;101461.97;6256600;23;20016;-70
2023/04/02 09:42:36;;;;;;;11.57;1.63;;;;;;;3.25;85.46;101480.03;6252047;23;20031;-71
2023/04/02 09:45:21;;;;;;;10.48;1.77;;;;;;;3.93;77.46;101475.78;6257248;23;20074;-71
2023/04/02 09:47:50;;;;;;;4.93;1.73;;;;;;;4.25;70.50;101484.34;6251228;23;20103;-71
2023/04/02 09:50:33;;;;;;;5.57;1.63;;;;;;;4.27;67.51;101485.06;6251842;23;20024;-69
2023/04/02 09:53:29;;;;;;;6.95;1.95;;;;;;;4.83;65.89;101496.41;6252834;23;20043;-70
2023/04/02 09:56:14;;;;;;;5.10;1.52;;;;;;;4.49;64.31;101500.50;6251340;23;20031;-71
2023/04/02 09:58:43;;;;;;;8.80;1.85;;;;;;;5.18;61.37;101499.34;6253681;23;20024;-68
2023/04/02 10:01:27;;;;;;;8.60;1.92;;;;;;;6.19;59.79;101491.25;6256800;23;20020;-68
2023/04/02 10:03:55;;;;;;;7.22;1.58;;;;;;;6.95;55.73;101495.34;6258564;23;20024;-68
2023/04/02 10:06:22;;;;;;;5.82;2.00;;;;;;;6.83;51.52;101489.09;6258170;23;20028;-69
2023/04/02 10:08:49;;;;;;;4.97;1.35;;;;;;;5.68;53.97;101496.72;6242691;23;20442;-70
2023/04/02 10:11:26;;;;;;;7.53;1.90;;;;;;;5.18;54.74;101506.44;6242466;23;20031;-69
2023/04/02 10:14:23;;;;;;;6.00;1.58;;;;;;;5.47;53.55;101507.94;6243039;23;20016;-70
2023/04/02 10:16:56;;;;;;;3.83;1.23;;;;;;;5.00;53.95;101503.22;6241306;23;20035;-70
2023/04/02 10:19:30;;;;;;;8.52;1.52;;;;;;;5.25;55.66;101513.91;6241641;23;20456;-80
2023/04/02 10:21:59;;;;;;;7.75;1.83;;;;;;;6.27;52.53;101504.03;6240819;23;20020;-71
2023/04/02 10:24:27;;;;;;;11.05;2.00;;;;;;;5.77;53.11;101514.72;6238736;23;20028;-76
2023/04/02 10:27:26;;;;;;;7.68;1.52;;;;;;;6.02;52.77;101504.97;6241683;23;20016;-70
2023/04/02 10:30:21;;;;;;;6.55;1.35;;;;;;;5.99;52.17;101516.69;6236179;23;20022;-71
2023/04/02 10:33:02;;;;;;;3.75;1.38;;;;;;;5.63;53.33;101521.03;6240099;23;20020;-71
2023/04/02 10:35:40;;;;;;;6.85;1.50;;;;;;;5.91;54.07;101519.91;6242572;23;20028;-72
2023/04/02 10:38:47;;;;;;;5.70;1.70;;;;;;;6.11;53.53;101522.91;6239543;22;20052;-72
2023/04/02 10:41:42;;;;;;;8.93;1.75;;;;;;;6.04;54.52;101522.50;6241706;22;20050;-74
2023/04/02 10:44:27;;;;;;;7.38;1.50;;;;;;;5.78;54.70;101519.06;6240082;23;20024;-73
2023/04/02 10:47:18;;;;;;;3.92;1.42;;;;;;;5.12;56.81;101538.81;6241943;23;20357;-72
2023/04/02 10:49:48;;;;;;;5.28;1.80;;;;;;;4.28;58.61;101538.13;6240918;23;20020;-72
2023/04/02 10:52:25;;;;;;;7.93;2.28;;;;;;;4.46;60.76;101545.88;6241849;23;20352;-72
2023/04/02 10:55:01;;;;;;;11.07;2.58;;;;;;;5.39;58.33;101544.88;6242753;23;20513;-72
2023/04/02 10:57:38;;;;;;;9.75;2.33;;;;;;;4.34;59.57;101547.47;6240689;23;20024;-74
2023/04/02 11:00:11;;;;;;;9.85;2.45;;;;;;;4.91;59.37;101554.41;6241698;23;20074;-73
2023/04/02 11:02:48;;;;;;;7.63;2.10;;;;;;;4.41;58.87;101546.16;6243055;23;20015;-73
2023/04/02 11:05:35;;;;;;;5.93;1.48;;;;;;;4.15;60.64;101553.13;6241853;23;20035;-73
2023/04/02 11:08:09;;;;;;;5.18;1.73;;;;;;;4.67;59.10;101565.72;6242265;23;20388;-74
2023/04/02 11:10:39;;;;;;;5.80;1.77;;;;;;;4.87;58.53;101563.50;6241120;23;20040;-73
2023/04/02 11:13:34;;;;;;;9.15;1.70;;;;;;;3.91;61.35;101568.81;6241063;23;20028;-73
2023/04/02 11:16:02;;;;;;;6.38;1.70;;;;;;;3.71;63.72;101572.69;6242152;23;20100;-73
2023/04/02 11:18:34;;;;;;;9.35;1.58;;;;;;;3.70;64.81;101571.00;6241965;22;20028;-73
2023/04/02 11:21:03;;;;;;;12.48;1.60;;;;;;;3.27;69.35;101580.69;6242299;23;20033;-71
2023/04/02 11:23:33;;;;;;;7.30;1.80;;;;;;;3.57;70.85;101585.97;6240416;23;20457;-75
2023/04/02 11:26:37;;;;;;;8.45;2.20;;;;;;;3.36;73.23;101590.78;6241202;23;20031;-73
2023/04/02 11:29:11;;;;;;;8.50;1.75;;;;;;;3.08;76.67;101599.50;6240822;23;20040;-73
2023/04/02 11:31:38;;;;;;;9.05;2.00;;;;;;;3.23;80.03;101603.91;6242182;23;20482;-73
2023/04/02 11:34:05;;;;;;;9.18;1.92;;;;;;;3.44;78.98;101598.25;6240051;23;20024;-72
2023/04/02 11:36:51;;;;;;;8.48;1.77;;;;;;;3.53;75.96;101600.38;6241825;23;20028;-72
2023/04/02 11:39:49;;;;;;;11.60;1.90;;;;;;;3.76;74.41;101612.22;6241080;23;20100;-72
2023/04/02 11:42:32;;;;;;;5.68;1.80;;;;;;;3.66;69.38;101605.78;6240359;23;20111;-72
2023/04/02 11:45:19;;;;;;;15.77;2.20;;;;;;;3.38;69.70;101608.31;6241546;23;20020;-73
2023/04/02 11:47:58;;;;;;;8.52;2.10;;;;;;;3.31;71.37;101617.56;6240132;23;20080;-72
2023/04/02 11:50:38;;;;;;;9.18;1.65;;;;;;;4.47;66.30;101617.50;6240594;23;20446;-73
2023/04/02 11:53:11;;;;;;;6.57;1.80;;;;;;;6.83;55.47;101618.97;6240453;23;20024;-73
2023/04/02 11:55:39;;;;;;;7.32;1.80;;;;;;;7.01;51.95;101612.22;6241664;23;20027;-72
2023/04/02 11:58:27;;;;;;;6.38;1.80;;;;;;;7.24;50.62;101625.69;6240707;23;20024;-72
2023/04/02 12:01:10;;;;;;;3.92;1.80;;;;;;;7.13;50.86;101623.81;6240244;23;20433;-73
2023/04/02 12:04:01;;;;;;;6.97;1.88;;;;;;;5.80;51.77;101634.28;6241327;23;20024;-73
2023/04/02 12:07:05;;;;;;;6.60;1.80;;;;;;;4.84;56.08;101633.72;6240974;23;20412;-74
2023/04/02 12:09:49;;;;;;;6.72;1.70;;;;;;;3.99;59.27;101640.00;6239493;23;21528;-74
2023/04/02 12:12:27;;;;;;;5.82;1.80;;;;;;;4.93;57.61;101624.28;6240980;22;20024;-72
2023/04/02 12:14:56;;;;;;;8.50;1.90;;;;;;;4.37;59.79;101634.09;6241072;23;20024;-73
2023/04/02 12:17:37;;;;;;;5.30;1.48;;;;;;;4.48;60.42;101637.78;6241124;22;20015;-74